createdAt,value
2019-02-03T00:02:04.179Z,98831.38
2019-02-03T00:04:30.485Z,98830.42
2019-02-03T00:07:03.281Z,98815.61
2019-02-03T00:09:25.301Z,98814.19
2019-02-03T00:11:51.868Z,98821.03
2019-02-03T00:14:18.497Z,98823.00
2019-02-03T00:16:44.791Z,98826.01
2019-02-03T00:19:11.420Z,98824.64
2019-02-03T00:21:38.086Z,98820.22
2019-02-03T00:24:04.398Z,98821.73
2019-02-03T00:26:30.737Z,98825.22
2019-02-03T00:28:57.125Z,98818.15
2019-02-03T00:31:23.435Z,98814.48
2019-02-03T00:33:49.763Z,98819.11
2019-02-03T00:36:16.859Z,98812.27
2019-02-03T00:38:43.492Z,98818.79
2019-02-03T00:41:10.096Z,98816.38
2019-02-03T00:43:36.713Z,98827.87
2019-02-03T00:46:04.408Z,98822.80
2019-02-03T00:48:31.014Z,98835.03
2019-02-03T00:50:57.325Z,98833.73
2019-02-03T00:53:24.110Z,98834.73
2019-02-03T00:55:50.471Z,98849.41
2019-02-03T00:58:16.820Z,98845.42
2019-02-03T01:00:43.256Z,98864.65
2019-02-03T01:03:10.576Z,98857.81
2019-02-03T01:05:37.119Z,98856.42
2019-02-03T01:08:05.099Z,98864.19
2019-02-03T01:10:31.434Z,98873.98
2019-02-03T01:12:58.004Z,98875.06
2019-02-03T01:15:24.568Z,98886.81
2019-02-03T01:17:50.893Z,98878.70
2019-02-03T01:20:22.671Z,98880.92
2019-02-03T01:22:49.091Z,98880.19
2019-02-03T01:25:15.806Z,98886.28
2019-02-03T01:27:42.194Z,98888.67
2019-02-03T01:30:18.622Z,98883.32
2019-02-03T01:32:45.266Z,98888.95
2019-02-03T01:35:12.001Z,98898.30
2019-02-03T01:37:40.000Z,98904.58
2019-02-03T01:40:15.040Z,98900.61
2019-02-03T01:42:42.613Z,98903.37
2019-02-03T01:45:14.034Z,98901.06
2019-02-03T01:47:40.359Z,98914.65
2019-02-03T01:50:10.467Z,98914.67
2019-02-03T01:52:37.283Z,98923.70
2019-02-03T01:55:08.197Z,98934.86
2019-02-03T01:57:34.799Z,98937.56
2019-02-03T02:00:01.917Z,98934.36
2019-02-03T02:02:28.653Z,98938.45
2019-02-03T02:04:54.973Z,98940.94
2019-02-03T02:07:21.261Z,98941.27
2019-02-03T02:09:47.781Z,98944.35
2019-02-03T02:12:14.328Z,98946.64
2019-02-03T02:14:40.977Z,98949.32
2019-02-03T02:17:07.270Z,98951.08
2019-02-03T02:19:33.604Z,98957.02
2019-02-03T02:21:59.923Z,98955.04
2019-02-03T02:24:26.390Z,98956.27
2019-02-03T02:26:53.105Z,98962.98
2019-02-03T02:29:19.437Z,98959.88
2019-02-03T02:31:46.035Z,98967.47
2019-02-03T02:34:12.318Z,98978.75
2019-02-03T02:36:38.785Z,98978.08
2019-02-03T02:39:06.538Z,98973.39
2019-02-03T02:41:34.767Z,98978.65
2019-02-03T02:44:01.738Z,98982.63
2019-02-03T02:46:28.295Z,98983.75
2019-02-03T02:48:54.624Z,98994.09
2019-02-03T02:51:20.928Z,98995.95
2019-02-03T02:53:47.252Z,98994.48
2019-02-03T02:56:13.547Z,98998.36
2019-02-03T02:58:40.137Z,99001.87
2019-02-03T03:01:06.725Z,98999.64
2019-02-03T03:03:33.317Z,98998.31
2019-02-03T03:06:00.679Z,99000.60
2019-02-03T03:08:27.289Z,98995.88
2019-02-03T03:10:53.627Z,98996.72
2019-02-03T03:13:19.922Z,98997.80
2019-02-03T03:15:46.259Z,98998.88
2019-02-03T03:18:12.587Z,98997.53
2019-02-03T03:20:38.903Z,99004.34
2019-02-03T03:23:05.259Z,99001.54
2019-02-03T03:25:31.583Z,98995.05
2019-02-03T03:27:58.151Z,98992.91
2019-02-03T03:30:27.155Z,98992.44
2019-02-03T03:32:54.164Z,98997.20
2019-02-03T03:35:20.866Z,98997.28
2019-02-03T03:37:47.233Z,98988.68
2019-02-03T03:40:17.909Z,98995.05
2019-02-03T03:42:44.540Z,98997.76
2019-02-03T03:45:11.404Z,99000.94
2019-02-03T03:47:38.195Z,99001.05
2019-02-03T03:50:11.930Z,98992.58
2019-02-03T03:52:39.437Z,99000.11
2019-02-03T03:55:06.981Z,98998.17
2019-02-03T03:57:33.290Z,99005.20
2019-02-03T03:59:59.639Z,99006.97
2019-02-03T04:02:25.942Z,99014.44
2019-02-03T04:04:52.269Z,99023.01
2019-02-03T04:07:19.153Z,99028.36
2019-02-03T04:09:45.645Z,99031.39
2019-02-03T04:12:11.978Z,99026.58
2019-02-03T04:14:38.283Z,99031.03
2019-02-03T04:17:04.874Z,99042.17
2019-02-03T04:19:31.417Z,99046.39
2019-02-03T04:21:57.751Z,99055.33
2019-02-03T04:24:24.082Z,99062.21
2019-02-03T04:26:50.651Z,99063.42
2019-02-03T04:29:17.223Z,99065.92
2019-02-03T04:31:43.783Z,99058.98
2019-02-03T04:34:10.395Z,99075.34
2019-02-03T04:36:37.164Z,99078.58
2019-02-03T04:39:05.931Z,99083.91
2019-02-03T04:41:32.352Z,99086.09
2019-02-03T04:43:59.004Z,99086.02
2019-02-03T04:46:25.764Z,99094.09
2019-02-03T04:48:52.153Z,99091.41
2019-02-03T04:51:18.455Z,99089.58
2019-02-03T04:53:45.058Z,99086.13
2019-02-03T04:56:11.374Z,99089.69
2019-02-03T04:58:37.720Z,99090.26
2019-02-03T05:01:04.544Z,99080.34
2019-02-03T05:03:31.120Z,99092.20
2019-02-03T05:05:57.674Z,99093.53
2019-02-03T05:08:24.002Z,99098.73
2019-02-03T05:10:50.575Z,99103.19
2019-02-03T05:13:17.154Z,99103.52
2019-02-03T05:15:43.747Z,99101.69
2019-02-03T05:18:10.388Z,99098.21
2019-02-03T05:20:36.709Z,99096.23
2019-02-03T05:23:03.059Z,99089.50
2019-02-03T05:25:29.669Z,99091.71
2019-02-03T05:27:56.088Z,99081.89
2019-02-03T05:30:27.020Z,99086.83
2019-02-03T05:32:53.469Z,99083.03
2019-02-03T05:35:20.071Z,99084.80
2019-02-03T05:37:46.390Z,99088.77
2019-02-03T05:40:14.705Z,99089.45
2019-02-03T05:42:41.286Z,99090.78
2019-02-03T05:45:12.388Z,99088.16
2019-02-03T05:47:38.708Z,99087.93
2019-02-03T05:50:12.474Z,99090.02
2019-02-03T05:52:39.032Z,99087.74
2019-02-03T05:55:06.896Z,99092.77
2019-02-03T05:57:33.474Z,99093.98
2019-02-03T06:00:00.091Z,99094.67
2019-02-03T06:02:26.868Z,99105.27
2019-02-03T06:04:53.561Z,99113.16
2019-02-03T06:07:20.191Z,99112.42
2019-02-03T06:09:46.509Z,99114.36
2019-02-03T06:12:12.838Z,99122.17
2019-02-03T06:14:39.155Z,99138.81
2019-02-03T06:17:05.742Z,99149.26
2019-02-03T06:19:32.102Z,99147.79
2019-02-03T06:21:58.677Z,99147.29
2019-02-03T06:24:25.330Z,99148.33
2019-02-03T06:26:51.929Z,99149.31
2019-02-03T06:29:18.341Z,99140.90
2019-02-03T06:31:44.773Z,99143.99
2019-02-03T06:34:11.377Z,99150.19
2019-02-03T06:36:37.845Z,99155.30
2019-02-03T06:39:06.498Z,99161.48
2019-02-03T06:41:33.088Z,99163.39
2019-02-03T06:43:59.819Z,99170.44
2019-02-03T06:46:30.827Z,99170.52
2019-02-03T06:48:57.803Z,99163.93
2019-02-03T06:51:24.436Z,99166.21
2019-02-03T06:53:51.148Z,99162.00
2019-02-03T06:56:17.774Z,99169.87
2019-02-03T06:58:44.136Z,99160.42
2019-02-03T07:01:10.722Z,99159.67
2019-02-03T07:03:37.067Z,99164.05
2019-02-03T07:06:03.589Z,99161.27
2019-02-03T07:08:29.893Z,99171.39
2019-02-03T07:10:56.309Z,99171.55
2019-02-03T07:13:23.619Z,99173.60
2019-02-03T07:15:49.936Z,99178.48
2019-02-03T07:18:16.558Z,99173.30
2019-02-03T07:20:42.867Z,99172.11
2019-02-03T07:23:09.527Z,99155.69
2019-02-03T07:25:36.103Z,99147.22
2019-02-03T07:28:04.509Z,99143.15
2019-02-03T07:30:30.825Z,99138.77
2019-02-03T07:32:57.404Z,99132.77
2019-02-03T07:35:23.786Z,99129.75
2019-02-03T07:37:51.112Z,99120.01
2019-02-03T07:40:19.943Z,99119.88
2019-02-03T07:42:46.301Z,99131.86
2019-02-03T07:45:12.942Z,99154.75
2019-02-03T07:47:39.630Z,99178.43
2019-02-03T07:50:15.786Z,99203.73
2019-02-03T07:52:42.083Z,99215.86
2019-02-03T07:55:13.076Z,99234.19
2019-02-03T07:57:39.658Z,99234.45
2019-02-03T08:00:13.687Z,99241.72
2019-02-03T08:02:40.021Z,99241.42
2019-02-03T08:05:09.527Z,99248.59
2019-02-03T08:07:35.821Z,99251.67
2019-02-03T08:10:06.339Z,99256.27
2019-02-03T08:12:32.792Z,99256.23
2019-02-03T08:14:59.236Z,99255.52
2019-02-03T08:17:26.245Z,99259.91
2019-02-03T08:19:52.816Z,99259.11
2019-02-03T08:22:19.121Z,99262.11
2019-02-03T08:24:45.440Z,99256.80
2019-02-03T08:27:12.046Z,99256.95
2019-02-03T08:29:38.330Z,99260.48
2019-02-03T08:32:04.945Z,99253.00
2019-02-03T08:34:31.519Z,99255.33
2019-02-03T08:36:57.885Z,99253.80
2019-02-03T08:39:24.233Z,99253.21
2019-02-03T08:41:50.577Z,99256.18
2019-02-03T08:44:17.256Z,99259.74
2019-02-03T08:46:43.621Z,99263.41
2019-02-03T08:49:10.160Z,99265.16
2019-02-03T08:51:36.516Z,99265.12
2019-02-03T08:54:03.823Z,99267.92
2019-02-03T08:56:30.196Z,99273.66
2019-02-03T08:58:56.789Z,99277.39
2019-02-03T09:01:23.132Z,99275.50
2019-02-03T09:03:49.432Z,99282.86
2019-02-03T09:06:15.783Z,99287.17
2019-02-03T09:08:42.679Z,99290.88
2019-02-03T09:11:27.628Z,99287.88
2019-02-03T09:13:55.785Z,99287.14
2019-02-03T09:16:22.231Z,99292.73
2019-02-03T09:18:48.819Z,99298.42
2019-02-03T09:21:15.432Z,99297.48
2019-02-03T09:23:42.213Z,99293.64
2019-02-03T09:26:13.167Z,99296.91
2019-02-03T09:28:39.596Z,99302.94
2019-02-03T09:31:06.297Z,99301.08
2019-02-03T09:33:32.694Z,99299.86
2019-02-03T09:35:59.027Z,99303.14
2019-02-03T09:38:25.365Z,99312.23
2019-02-03T09:40:59.784Z,99315.13
2019-02-03T09:43:20.961Z,99317.89
2019-02-03T09:45:47.531Z,99319.13
2019-02-03T09:48:13.844Z,99325.12
2019-02-03T09:50:40.183Z,99342.62
2019-02-03T09:53:07.593Z,99344.44
2019-02-03T09:55:34.057Z,99350.52
2019-02-03T09:58:00.954Z,99347.01
2019-02-03T10:00:35.125Z,99345.12
2019-02-03T10:03:03.403Z,99344.59
2019-02-03T10:05:30.053Z,99343.80
2019-02-03T10:07:57.240Z,99333.62
2019-02-03T10:10:35.536Z,99331.73
2019-02-03T10:13:02.148Z,99304.79
2019-02-03T10:15:29.226Z,99322.54
2019-02-03T10:17:55.955Z,99321.23
2019-02-03T10:20:23.096Z,99305.82
2019-02-03T10:22:49.767Z,99308.63
2019-02-03T10:25:25.001Z,99310.73
2019-02-03T10:27:51.570Z,99315.80
2019-02-03T10:30:21.269Z,99324.59
2019-02-03T10:32:48.397Z,99333.66
2019-02-03T10:35:23.449Z,99276.63
2019-02-03T10:37:46.974Z,99333.13
2019-02-03T10:40:18.510Z,99338.63
2019-02-03T10:42:46.389Z,99345.61
2019-02-03T10:45:17.355Z,99351.48
2019-02-03T10:47:43.924Z,99358.74
2019-02-03T10:50:23.123Z,99355.39
2019-02-03T10:52:50.095Z,99367.01
2019-02-03T10:55:16.762Z,99367.63
2019-02-03T10:57:43.849Z,99374.39
2019-02-03T11:00:18.080Z,99375.25
2019-02-03T11:02:43.579Z,99378.66
2019-02-03T11:05:17.697Z,99374.48
2019-02-03T11:07:44.391Z,99375.53
2019-02-03T11:10:16.495Z,99382.15
2019-02-03T11:12:42.891Z,99378.89
2019-02-03T11:15:12.371Z,99380.50
2019-02-03T11:17:38.702Z,99383.67
2019-02-03T11:20:18.237Z,99380.10
2019-02-03T11:22:44.214Z,99387.11
2019-02-03T11:25:11.286Z,99391.20
2019-02-03T11:27:37.831Z,99387.70
2019-02-03T11:30:20.348Z,99373.11
2019-02-03T11:32:47.382Z,99377.67
2019-02-03T11:35:15.486Z,99381.94
2019-02-03T11:37:42.280Z,99380.55
2019-02-03T11:40:13.118Z,99385.64
2019-02-03T11:42:39.873Z,99376.99
2019-02-03T11:45:17.443Z,99373.34
2019-02-03T11:47:43.753Z,99373.02
2019-02-03T11:50:15.799Z,99379.05
2019-02-03T11:52:42.798Z,99396.63
2019-02-03T11:55:09.412Z,99381.17
2019-02-03T11:57:36.222Z,99388.84
2019-02-03T12:00:16.526Z,99391.66
2019-02-03T12:02:42.880Z,99400.09
2019-02-03T12:05:10.044Z,99405.30
2019-02-03T12:07:37.011Z,99408.97
2019-02-03T12:10:12.070Z,99414.08
2019-02-03T12:12:38.427Z,99408.55
2019-02-03T12:15:10.533Z,99424.92
2019-02-03T12:17:36.902Z,99421.87
2019-02-03T12:20:07.854Z,99432.62
2019-02-03T12:22:34.184Z,99424.97
2019-02-03T12:25:00.630Z,99433.03
2019-02-03T12:27:26.916Z,99434.48
2019-02-03T12:29:53.535Z,99436.63
2019-02-03T12:32:19.840Z,99438.63
2019-02-03T12:34:46.448Z,99436.69
2019-02-03T12:37:13.225Z,99432.73
2019-02-03T12:39:39.834Z,99439.51
2019-02-03T12:42:13.042Z,99445.00
2019-02-03T12:44:34.925Z,99439.90
2019-02-03T12:47:01.296Z,99433.20
2019-02-03T12:49:27.874Z,99444.31
2019-02-03T12:51:54.453Z,99440.73
2019-02-03T12:54:21.015Z,99442.38
2019-02-03T12:56:47.325Z,99445.42
2019-02-03T12:59:13.658Z,99458.36
2019-02-03T13:01:40.321Z,99452.03
2019-02-03T13:04:07.033Z,99455.47
2019-02-03T13:06:33.892Z,99452.83
2019-02-03T13:09:00.672Z,99458.02
2019-02-03T13:11:28.277Z,99464.20
2019-02-03T13:13:54.686Z,99466.52
2019-02-03T13:16:21.081Z,99478.54
2019-02-03T13:18:47.616Z,99484.25
2019-02-03T13:21:14.485Z,99496.83
2019-02-03T13:23:45.090Z,99514.34
2019-02-03T13:26:09.084Z,99521.20
2019-02-03T13:28:35.533Z,99529.33
2019-02-03T13:31:02.665Z,99529.80
2019-02-03T13:33:29.109Z,99546.92
2019-02-03T13:35:55.788Z,99549.58
2019-02-03T13:38:22.173Z,99558.71
2019-02-03T13:40:49.087Z,99558.56
2019-02-03T13:43:15.912Z,99563.08
2019-02-03T13:45:45.014Z,99569.00
2019-02-03T13:48:11.463Z,99570.46
2019-02-03T13:50:38.525Z,99574.56
2019-02-03T13:53:04.914Z,99579.50
2019-02-03T13:55:31.286Z,99583.16
2019-02-03T13:57:57.638Z,99591.23
2019-02-03T14:00:30.208Z,99606.83
2019-02-03T14:02:56.746Z,99608.98
2019-02-03T14:05:23.425Z,99614.23
2019-02-03T14:07:50.006Z,99615.81
2019-02-03T14:10:27.120Z,99607.80
2019-02-03T14:12:55.101Z,99601.03
2019-02-03T14:15:22.091Z,99602.95
2019-02-03T14:17:49.127Z,99616.05
2019-02-03T14:20:25.050Z,99617.45
2019-02-03T14:22:51.836Z,99628.09
2019-02-03T14:25:27.611Z,99629.55
2019-02-03T14:27:54.616Z,99628.23
2019-02-03T14:30:25.599Z,99627.45
2019-02-03T14:32:52.186Z,99629.58
2019-02-03T14:35:18.812Z,99634.26
2019-02-03T14:37:45.307Z,99643.25
2019-02-03T14:40:20.577Z,99638.70
2019-02-03T14:42:48.511Z,99636.30
2019-02-03T14:45:22.971Z,99637.47
2019-02-03T14:47:50.005Z,99642.21
2019-02-03T14:50:20.779Z,99647.77
2019-02-03T14:52:47.991Z,99630.44
2019-02-03T14:55:18.814Z,99643.65
2019-02-03T14:57:45.305Z,99645.73
2019-02-03T15:00:22.575Z,99645.37
2019-02-03T15:02:49.243Z,99645.55
2019-02-03T15:05:20.166Z,99638.66
2019-02-03T15:07:46.955Z,99644.61
2019-02-03T15:10:14.494Z,99639.83
2019-02-03T15:12:41.056Z,99640.09
2019-02-03T15:15:19.219Z,99637.38
2019-02-03T15:17:45.907Z,99626.58
2019-02-03T15:20:16.590Z,99637.39
2019-02-03T15:22:43.304Z,99636.32
2019-02-03T15:25:10.183Z,99653.30
2019-02-03T15:27:36.541Z,99655.31
2019-02-03T15:30:19.053Z,99660.27
2019-02-03T15:32:40.495Z,99666.64
2019-02-03T15:35:09.534Z,99677.02
2019-02-03T15:37:36.140Z,99684.32
2019-02-03T15:40:11.213Z,99682.80
2019-02-03T15:42:38.894Z,99685.80
2019-02-03T15:45:10.131Z,99640.67
2019-02-03T15:47:36.700Z,99691.62
2019-02-03T15:50:08.739Z,99701.17
2019-02-03T15:52:35.395Z,99701.72
2019-02-03T15:55:02.120Z,99718.06
2019-02-03T15:57:30.922Z,99715.73
2019-02-03T15:59:57.923Z,99721.27
2019-02-03T16:02:24.689Z,99725.56
2019-02-03T16:04:51.014Z,99738.88
2019-02-03T16:07:17.598Z,99733.05
2019-02-03T16:09:43.912Z,99730.72
2019-02-03T16:12:10.356Z,99725.38
2019-02-03T16:14:36.674Z,99729.22
2019-02-03T16:17:03.442Z,99739.30
2019-02-03T16:19:30.097Z,99744.66
2019-02-03T16:21:56.423Z,99764.27
2019-02-03T16:24:23.165Z,99766.92
2019-02-03T16:26:49.805Z,99762.75
2019-02-03T16:29:16.139Z,99786.42
2019-02-03T16:31:42.742Z,99790.51
2019-02-03T16:34:09.271Z,99798.72
2019-02-03T16:36:35.615Z,99799.75
2019-02-03T16:39:06.189Z,99804.92
2019-02-03T16:41:33.921Z,99810.78
2019-02-03T16:44:00.226Z,99824.90
2019-02-03T16:46:26.552Z,99831.06
2019-02-03T16:48:53.019Z,99834.34
2019-02-03T16:51:19.484Z,99833.64
2019-02-03T16:53:46.372Z,99843.53
2019-02-03T16:56:13.192Z,99844.61
2019-02-03T16:58:39.838Z,99853.16
2019-02-03T17:01:06.471Z,99855.35
2019-02-03T17:03:32.843Z,99859.47
2019-02-03T17:05:59.472Z,99872.00
2019-02-03T17:08:26.269Z,99872.16
2019-02-03T17:10:52.717Z,99871.89
2019-02-03T17:13:19.850Z,99876.77
2019-02-03T17:15:50.442Z,99878.84
2019-02-03T17:18:16.942Z,99876.41
2019-02-03T17:20:43.775Z,99883.78
2019-02-03T17:23:10.470Z,99883.24
2019-02-03T17:25:48.734Z,99894.95
2019-02-03T17:28:15.393Z,99894.47
2019-02-03T17:30:42.031Z,99894.41
2019-02-03T17:33:08.862Z,99898.47
2019-02-03T17:35:35.837Z,99900.81
2019-02-03T17:38:03.004Z,99913.80
2019-02-03T17:40:30.680Z,99923.53
2019-02-03T17:42:57.123Z,99922.00
2019-02-03T17:45:25.041Z,99923.48
2019-02-03T17:47:51.476Z,99925.10
2019-02-03T17:50:26.554Z,99926.42
2019-02-03T17:52:53.194Z,99931.13
2019-02-03T17:55:19.540Z,99931.67
2019-02-03T17:57:46.149Z,99947.45
2019-02-03T18:00:30.626Z,99950.98
2019-02-03T18:02:57.499Z,99940.20
2019-02-03T18:05:26.190Z,99954.48
2019-02-03T18:07:52.600Z,99959.88
2019-02-03T18:10:22.563Z,99974.45
2019-02-03T18:12:49.306Z,99969.01
2019-02-03T18:15:16.235Z,99977.03
2019-02-03T18:17:42.827Z,99985.22
2019-02-03T18:20:18.910Z,99985.17
2019-02-03T18:22:45.575Z,99986.24
2019-02-03T18:25:12.302Z,99991.58
2019-02-03T18:27:39.368Z,99988.89
2019-02-03T18:30:17.374Z,99998.27
2019-02-03T18:32:44.411Z,100003.08
2019-02-03T18:35:12.477Z,100010.16
2019-02-03T18:37:39.142Z,100009.94
2019-02-03T18:40:16.588Z,100012.86
2019-02-03T18:42:43.172Z,100015.00
2019-02-03T18:45:13.402Z,100021.38
2019-02-03T18:47:40.112Z,100030.15
2019-02-03T18:50:11.519Z,100044.08
2019-02-03T18:52:39.718Z,100038.03
2019-02-03T18:55:23.722Z,100036.44
2019-02-03T18:57:50.177Z,100037.51
2019-02-03T19:00:20.291Z,100041.46
2019-02-03T19:02:47.098Z,100038.97
2019-02-03T19:05:17.735Z,100040.19
2019-02-03T19:07:45.426Z,100054.05
2019-02-03T19:10:16.291Z,100043.44
2019-02-03T19:12:42.980Z,100056.36
2019-02-03T19:15:11.885Z,100047.64
2019-02-03T19:17:38.320Z,100064.53
2019-02-03T19:20:25.042Z,100067.73
2019-02-03T19:22:51.857Z,100073.36
2019-02-03T19:25:20.317Z,100079.84
2019-02-03T19:27:47.075Z,100083.14
2019-02-03T19:30:20.432Z,100094.67
2019-02-03T19:32:47.267Z,100086.84
2019-02-03T19:35:16.214Z,100096.88
2019-02-03T19:37:42.988Z,100089.72
2019-02-03T19:40:18.419Z,100102.42
2019-02-03T19:42:45.934Z,100102.00
2019-02-03T19:45:21.503Z,100105.66
2019-02-03T19:47:48.110Z,100112.48
2019-02-03T19:50:22.640Z,100118.87
2019-02-03T19:52:49.111Z,100123.50
2019-02-03T19:55:15.540Z,100127.89
2019-02-03T19:57:42.177Z,100128.13
2019-02-03T20:00:17.406Z,100139.90
2019-02-03T20:02:44.005Z,100139.23
2019-02-03T20:05:10.666Z,100140.93
2019-02-03T20:07:37.280Z,100146.23
2019-02-03T20:10:17.759Z,100147.41
2019-02-03T20:12:45.865Z,100150.73
2019-02-03T20:15:15.918Z,100148.73
2019-02-03T20:17:44.826Z,100155.19
2019-02-03T20:20:18.438Z,100166.15
2019-02-03T20:22:46.482Z,100169.88
2019-02-03T20:25:13.453Z,100173.94
2019-02-03T20:27:40.325Z,100165.06
2019-02-03T20:30:21.258Z,100182.45
2019-02-03T20:32:47.668Z,100188.75
2019-02-03T20:35:20.442Z,100187.09
2019-02-03T20:37:46.857Z,100193.52
2019-02-03T20:40:17.986Z,100193.55
2019-02-03T20:42:44.330Z,100212.03
2019-02-03T20:45:20.869Z,100221.77
2019-02-03T20:47:40.804Z,100223.06
2019-02-03T20:50:22.712Z,100220.06
2019-02-03T20:52:49.244Z,100224.34
2019-02-03T20:55:19.965Z,100225.47
2019-02-03T20:57:47.438Z,100234.64
2019-02-03T21:00:20.380Z,100228.58
2019-02-03T21:02:47.528Z,100234.68
2019-02-03T21:05:13.891Z,100247.75
2019-02-03T21:07:40.496Z,100247.79
2019-02-03T21:10:14.353Z,100249.58
2019-02-03T21:12:40.961Z,100248.93
2019-02-03T21:15:14.222Z,100250.34
2019-02-03T21:17:40.826Z,100267.82
2019-02-03T21:20:12.840Z,100261.56
2019-02-03T21:22:39.445Z,100273.43
2019-02-03T21:25:06.218Z,100275.05
2019-02-03T21:27:32.854Z,100282.35
2019-02-03T21:29:59.449Z,100309.19
2019-02-03T21:32:28.242Z,100304.27
2019-02-03T21:34:54.722Z,100299.00
2019-02-03T21:37:21.126Z,100314.09
2019-02-03T21:39:48.914Z,100302.34
2019-02-03T21:42:15.367Z,100314.70
2019-02-03T21:44:42.167Z,100326.80
2019-02-03T21:47:08.795Z,100319.43
2019-02-03T21:49:36.291Z,100318.77
2019-02-03T21:52:03.106Z,100326.75
2019-02-03T21:54:29.807Z,100334.06
2019-02-03T21:56:56.299Z,100331.53
2019-02-03T21:59:22.684Z,100337.17
2019-02-03T22:01:49.094Z,100333.30
2019-02-03T22:04:16.439Z,100341.87
2019-02-03T22:06:42.815Z,100343.95
2019-02-03T22:09:09.519Z,100349.91
2019-02-03T22:11:37.235Z,100346.48
2019-02-03T22:14:03.775Z,100350.54
2019-02-03T22:16:30.128Z,100353.27
2019-02-03T22:18:56.818Z,100349.32
2019-02-03T22:21:23.454Z,100348.39
2019-02-03T22:23:50.043Z,100365.19
2019-02-03T22:26:16.614Z,100360.50
2019-02-03T22:28:42.909Z,100364.38
2019-02-03T22:31:09.552Z,100375.45
2019-02-03T22:33:36.122Z,100374.77
2019-02-03T22:36:02.803Z,100380.59
2019-02-03T22:38:31.322Z,100389.50
2019-02-03T22:40:57.981Z,100379.06
2019-02-03T22:43:24.461Z,100387.36
2019-02-03T22:45:50.780Z,100393.37
2019-02-03T22:48:17.446Z,100412.34
2019-02-03T22:50:44.024Z,100406.63
2019-02-03T22:53:10.416Z,100410.83
2019-02-03T22:55:36.728Z,100415.59
2019-02-03T22:58:03.385Z,100412.75
2019-02-03T23:00:51.544Z,100415.89
2019-02-03T23:03:21.958Z,100432.76
2019-02-03T23:05:48.305Z,100432.78
2019-02-03T23:08:14.628Z,100445.61
2019-02-03T23:10:41.216Z,100449.11
2019-02-03T23:13:07.780Z,100444.18
2019-02-03T23:15:34.159Z,100454.37
2019-02-03T23:18:00.908Z,100453.59
2019-02-03T23:20:27.253Z,100459.50
2019-02-03T23:22:53.696Z,100469.12
2019-02-03T23:25:20.060Z,100474.01
2019-02-03T23:27:46.393Z,100476.48
2019-02-03T23:30:15.676Z,100473.27
2019-02-03T23:32:42.021Z,100478.70
2019-02-03T23:35:08.442Z,100480.70
2019-02-03T23:37:34.761Z,100484.08
2019-02-03T23:40:01.067Z,100499.93
2019-02-03T23:42:27.643Z,100500.30
2019-02-03T23:44:53.980Z,100505.67
2019-02-03T23:47:20.561Z,100508.63
2019-02-03T23:49:47.373Z,100512.16
2019-02-03T23:52:13.689Z,100517.17
2019-02-03T23:54:40.302Z,100519.72
2019-02-03T23:57:06.648Z,100524.41
2019-02-03T23:59:32.961Z,100519.31
